Time;durP1;ratioP1;P1;durP2;ratioP2;P2;SDS_P1;SDS_P2;PMS_P1;PMS_P2;Temp;Humidity;BMP_temperature;BMP_pressure;BME280_temperature;BME280_humidity;BME280_pressure;Samples;Min_cycle;Max_cycle;Signal;HPM_P1;HPM_P2
2023/03/05 00:00:38;;;;;;;13.18;6.57;;;;;;;5.40;91.79;100003.34;4956534;29;20043;-85
2023/03/05 00:03:03;;;;;;;15.70;7.18;;;;;;;5.53;92.08;99994.41;4956732;29;20486;-84
2023/03/05 00:05:29;;;;;;;10.20;5.90;;;;;;;5.44;92.84;100014.28;4939628;29;20066;-85
2023/03/05 00:07:54;;;;;;;13.43;6.57;;;;;;;5.43;92.48;100018.69;4939227;29;20087;-81
2023/03/05 00:10:20;;;;;;;11.15;5.75;;;;;;;5.50;92.32;100005.94;4955112;29;20043;-82
2023/03/05 00:12:46;;;;;;;11.10;6.00;;;;;;;5.49;92.44;99996.47;4954289;29;20080;-81
2023/03/05 00:15:11;;;;;;;9.10;5.78;;;;;;;5.57;92.80;99998.38;4953901;29;20122;-81
2023/03/05 00:17:37;;;;;;;10.18;5.78;;;;;;;5.54;92.10;100003.88;4952576;29;20564;-82
2023/03/05 00:20:03;;;;;;;11.82;6.03;;;;;;;5.65;92.16;100000.28;4954240;29;20031;-82
2023/03/05 00:22:29;;;;;;;11.10;6.35;;;;;;;5.51;92.04;99984.16;4954503;29;20049;-81
2023/03/05 00:24:54;;;;;;;8.65;5.93;;;;;;;5.58;91.95;99987.00;4954356;29;20388;-82
2023/03/05 00:27:19;;;;;;;11.23;6.78;;;;;;;5.45;92.64;99984.69;4954030;29;20102;-83
2023/03/05 00:29:45;;;;;;;11.68;6.43;;;;;;;5.36;92.40;99990.72;4953862;28;20549;-83
2023/03/05 00:32:10;;;;;;;10.13;7.22;;;;;;;5.39;93.54;99986.03;4954189;29;20043;-82
2023/03/05 00:34:36;;;;;;;9.43;6.03;;;;;;;5.55;92.60;99988.13;4957600;28;20142;-82
2023/03/05 00:37:02;;;;;;;10.75;6.22;;;;;;;5.63;92.62;99977.00;4958233;29;20035;-82
2023/03/05 00:39:27;;;;;;;11.63;5.75;;;;;;;5.54;93.37;99972.63;4957770;29;20027;-82
2023/03/05 00:41:53;;;;;;;14.57;7.10;;;;;;;5.36;92.62;99964.69;4940738;29;20078;-83
2023/03/05 00:44:20;;;;;;;8.15;6.10;;;;;;;5.29;93.13;99964.41;4958775;29;20046;-83
2023/03/05 00:46:45;;;;;;;13.85;7.10;;;;;;;4.99;94.55;99958.34;4958801;29;20047;-82
2023/03/05 00:49:11;;;;;;;12.45;7.00;;;;;;;5.29;93.06;99967.81;4958402;29;20043;-83
2023/03/05 00:51:37;;;;;;;14.85;8.45;;;;;;;4.99;93.69;99959.19;4941783;29;20079;-81
2023/03/05 00:54:04;;;;;;;13.68;7.50;;;;;;;4.99;93.66;99948.78;4959025;29;20043;-82
2023/03/05 00:56:29;;;;;;;13.77;8.00;;;;;;;4.58;95.16;99963.63;4956849;29;20126;-83
2023/03/05 00:58:55;;;;;;;17.50;8.30;;;;;;;4.75;94.62;99941.34;4959400;29;20059;-83
2023/03/05 01:01:21;;;;;;;12.15;7.88;;;;;;;4.65;95.04;99943.13;4941624;29;20036;-83
2023/03/05 01:03:47;;;;;;;16.40;8.32;;;;;;;4.43;94.70;99938.00;4942052;29;20043;-83
2023/03/05 01:06:15;;;;;;;18.05;8.88;;;;;;;4.63;95.52;99940.66;4952677;29;20079;-83
2023/03/05 01:08:41;;;;;;;15.48;8.85;;;;;;;4.42;95.57;99936.34;4955258;29;20047;-82
2023/03/05 01:11:07;;;;;;;16.75;8.35;;;;;;;4.67;94.52;99942.00;4950598;29;20035;-82
2023/03/05 01:13:32;;;;;;;18.70;8.70;;;;;;;4.47;95.48;99943.75;4956644;29;20046;-83
2023/03/05 01:15:58;;;;;;;13.70;7.75;;;;;;;4.64;95.14;99934.47;4942077;29;20050;-84
2023/03/05 01:18:24;;;;;;;14.98;8.15;;;;;;;4.57;95.30;99938.59;4959267;29;20464;-83
2023/03/05 01:20:49;;;;;;;13.80;8.05;;;;;;;4.73;95.02;99927.66;4958722;29;20082;-83
2023/03/05 01:23:15;;;;;;;17.80;8.48;;;;;;;4.29;95.83;99920.16;4959293;29;20039;-85
2023/03/05 01:25:41;;;;;;;12.88;7.32;;;;;;;4.49;95.76;99912.41;4942786;29;20047;-83
2023/03/05 01:28:07;;;;;;;13.43;8.68;;;;;;;4.29;96.77;99913.19;4941263;29;20039;-83
2023/03/05 01:30:33;;;;;;;16.20;8.80;;;;;;;4.49;96.72;99909.81;4958897;29;20144;-83
2023/03/05 01:32:58;;;;;;;17.80;9.13;;;;;;;4.65;96.36;99907.53;4941122;29;20564;-82
2023/03/05 01:35:24;;;;;;;26.67;9.48;;;;;;;4.52;96.66;99909.53;4958601;29;20035;-83
2023/03/05 01:37:50;;;;;;;23.52;8.98;;;;;;;4.61;95.98;99908.75;4941567;29;20046;-85
2023/03/05 01:40:23;;;;;;;14.48;9.40;;;;;;;4.71;96.47;99904.38;4959021;29;20116;-85
2023/03/05 01:42:58;;;;;;;21.88;9.70;;;;;;;4.94;95.84;99903.31;4968767;28;20042;-84
2023/03/05 01:45:24;;;;;;;17.20;9.55;;;;;;;4.44;96.66;99899.84;4939669;29;20047;-84
2023/03/05 01:47:50;;;;;;;18.60;10.20;;;;;;;4.37;97.42;99896.94;4956916;29;20401;-84
2023/03/05 01:50:21;;;;;;;17.77;9.85;;;;;;;4.65;96.64;99909.31;4957678;29;20031;-83
2023/03/05 01:53:03;;;;;;;18.60;10.00;;;;;;;5.05;95.47;99899.75;4940765;29;20047;-83
2023/03/05 01:55:31;;;;;;;17.63;10.70;;;;;;;4.98;95.03;99892.50;4948389;28;20046;-83
2023/03/05 01:58:10;;;;;;;18.95;10.25;;;;;;;5.01;95.20;99888.78;4958665;28;20109;-83
2023/03/05 02:00:55;;;;;;;19.15;10.98;;;;;;;5.03;95.53;99896.47;4957742;28;20039;-84
2023/03/05 02:03:24;;;;;;;21.02;11.98;;;;;;;4.61;95.86;99867.16;4976641;28;20544;-83
2023/03/05 02:05:49;;;;;;;18.45;11.02;;;;;;;4.50;97.33;99881.09;4977357;28;20437;-83
2023/03/05 02:08:17;;;;;;;22.10;12.00;;;;;;;4.62;96.61;99889.59;4958431;28;20049;-83
2023/03/05 02:10:51;;;;;;;18.88;10.88;;;;;;;4.60;97.02;99862.06;4958625;28;20053;-82
2023/03/05 02:13:21;;;;;;;21.02;12.18;;;;;;;4.61;96.71;99872.34;4957966;28;20038;-83
2023/03/05 02:15:48;;;;;;;28.17;12.68;;;;;;;4.41;96.58;99856.72;4971492;28;20035;-83
2023/03/05 02:18:15;;;;;;;24.80;12.50;;;;;;;4.47;97.63;99870.13;4958936;28;20047;-84
2023/03/05 02:20:43;;;;;;;19.27;11.57;;;;;;;4.63;97.26;99875.63;4976009;28;20046;-83
2023/03/05 02:23:09;;;;;;;21.77;11.52;;;;;;;4.40;96.95;99867.22;4977006;28;20046;-82
2023/03/05 02:25:34;;;;;;;20.70;12.60;;;;;;;4.54;96.98;99861.66;4958456;28;20038;-82
2023/03/05 02:28:15;;;;;;;21.83;13.07;;;;;;;4.80;97.61;99868.13;4976236;28;20034;-83
2023/03/05 02:30:40;;;;;;;24.45;14.32;;;;;;;4.62;97.00;99871.38;4976008;28;20057;-82
2023/03/05 02:33:06;;;;;;;19.35;12.65;;;;;;;4.37;97.84;99865.75;4976592;28;20046;-83
2023/03/05 02:35:32;;;;;;;23.23;13.32;;;;;;;4.53;98.73;99857.41;4976071;28;20109;-83
2023/03/05 02:37:57;;;;;;;27.52;14.35;;;;;;;4.29;99.32;99853.41;4976152;28;20101;-83
2023/03/05 02:40:23;;;;;;;25.90;14.23;;;;;;;4.45;99.79;99851.25;4975463;28;20039;-83
2023/03/05 02:42:48;;;;;;;28.48;14.07;;;;;;;4.18;99.66;99847.50;4976404;28;20101;-83
2023/03/05 02:45:15;;;;;;;23.80;12.77;;;;;;;4.49;99.70;99847.41;4975949;28;20034;-84
2023/03/05 02:47:41;;;;;;;28.20;14.73;;;;;;;4.53;99.75;99838.41;4976193;28;20042;-85
2023/03/05 02:50:09;;;;;;;26.80;13.95;;;;;;;4.58;99.04;99836.22;4959224;28;20378;-84
2023/03/05 02:52:38;;;;;;;25.67;13.95;;;;;;;4.20;100.00;99840.41;4974999;28;20038;-84
2023/03/05 02:55:04;;;;;;;30.90;15.15;;;;;;;4.18;100.00;99831.91;4950925;29;20077;-83
2023/03/05 02:57:29;;;;;;;27.77;14.00;;;;;;;4.04;100.00;99817.53;4954266;28;20051;-83
2023/03/05 02:59:55;;;;;;;23.73;13.70;;;;;;;4.38;100.00;99815.41;4956669;29;20461;-84
2023/03/05 03:02:20;;;;;;;32.15;14.10;;;;;;;4.05;100.00;99806.97;4956424;29;20046;-82
2023/03/05 03:04:46;;;;;;;25.45;14.18;;;;;;;4.08;100.00;99801.53;4956927;29;20043;-83
2023/03/05 03:07:13;;;;;;;23.50;13.68;;;;;;;4.23;99.94;99795.94;4957033;29;20050;-83
2023/03/05 03:09:39;;;;;;;27.52;14.20;;;;;;;4.20;99.27;99780.63;4938777;29;20447;-84
2023/03/05 03:12:05;;;;;;;26.95;12.77;;;;;;;4.11;100.00;99788.25;4956901;29;20117;-83
2023/03/05 03:14:38;;;;;;;24.83;13.45;;;;;;;4.25;100.00;99778.44;4957017;29;20042;-83
2023/03/05 03:17:12;;;;;;;24.53;12.67;;;;;;;4.10;100.00;99762.44;4938833;29;20125;-83
2023/03/05 03:19:41;;;;;;;26.95;13.30;;;;;;;4.22;100.00;99760.53;4939187;29;20047;-84
2023/03/05 03:22:07;;;;;;;24.33;11.43;;;;;;;3.99;100.00;99771.97;4938330;29;20043;-83
2023/03/05 03:24:34;;;;;;;24.88;13.32;;;;;;;4.12;100.00;99768.31;4957875;29;20050;-84
2023/03/05 03:27:00;;;;;;;23.15;12.93;;;;;;;3.85;100.00;99770.56;4957800;29;20043;-82
2023/03/05 03:29:26;;;;;;;24.63;11.90;;;;;;;4.12;100.00;99763.91;4960375;29;20086;-83
2023/03/05 03:31:51;;;;;;;25.05;12.75;;;;;;;4.21;100.00;99761.47;4963582;29;20039;-83
2023/03/05 03:34:17;;;;;;;28.13;12.23;;;;;;;4.25;100.00;99762.84;4941092;29;20114;-83
2023/03/05 03:36:44;;;;;;;23.23;12.25;;;;;;;4.20;100.00;99759.84;4937735;29;20059;-83
2023/03/05 03:39:10;;;;;;;22.05;12.07;;;;;;;4.12;100.00;99755.31;4938768;29;20118;-81
2023/03/05 03:41:40;;;;;;;23.02;12.32;;;;;;;4.28;100.00;99763.41;4956206;29;20150;-82
2023/03/05 03:44:07;;;;;;;23.48;11.82;;;;;;;4.05;100.00;99749.81;4956111;29;20043;-82
2023/03/05 03:46:34;;;;;;;18.95;11.18;;;;;;;3.92;100.00;99751.84;4921037;29;20039;-82
2023/03/05 03:49:00;;;;;;;19.38;10.70;;;;;;;3.93;100.00;99748.28;4956149;29;20047;-81
2023/03/05 03:51:25;;;;;;;20.60;10.52;;;;;;;3.97;100.00;99734.91;4939558;29;20035;-82
2023/03/05 03:53:51;;;;;;;19.42;11.57;;;;;;;3.78;100.00;99735.72;4956675;29;20120;-83
2023/03/05 03:56:17;;;;;;;24.48;11.35;;;;;;;4.02;100.00;99726.72;4972593;28;20047;-82
2023/03/05 03:58:43;;;;;;;21.27;11.18;;;;;;;4.09;100.00;99720.03;4958341;28;20050;-82
2023/03/05 04:01:09;;;;;;;25.60;11.20;;;;;;;3.83;100.00;99717.94;4975802;28;20054;-82
2023/03/05 04:03:34;;;;;;;22.35;10.95;;;;;;;3.91;100.00;99724.22;4975849;28;20043;-82
2023/03/05 04:06:00;;;;;;;21.80;10.68;;;;;;;3.83;100.00;99723.13;4975365;28;20035;-82
2023/03/05 04:08:25;;;;;;;23.55;10.57;;;;;;;4.03;100.00;99722.31;4976577;28;20119;-82
2023/03/05 04:10:51;;;;;;;23.75;11.73;;;;;;;3.79;100.00;99713.13;4977260;28;20117;-83
2023/03/05 04:13:16;;;;;;;18.27;10.07;;;;;;;3.58;100.00;99719.25;4977882;28;20046;-82
2023/03/05 04:15:42;;;;;;;22.73;12.02;;;;;;;3.89;100.00;99702.78;4962160;28;20046;-82
2023/03/05 04:18:09;;;;;;;21.13;9.82;;;;;;;3.73;100.00;99717.09;4980509;28;20035;-83
2023/03/05 04:20:35;;;;;;;21.77;10.20;;;;;;;3.84;100.00;99711.78;4982191;28;20030;-83
2023/03/05 04:23:00;;;;;;;19.58;10.43;;;;;;;4.01;100.00;99699.09;4983075;28;20397;-83
2023/03/05 04:25:26;;;;;;;19.75;10.57;;;;;;;3.91;100.00;99706.88;4989893;28;20069;-82
2023/03/05 04:27:52;;;;;;;16.00;10.38;;;;;;;4.12;100.00;99701.56;4967837;28;20038;-84
2023/03/05 04:30:17;;;;;;;18.80;9.90;;;;;;;3.77;100.00;99702.06;4980895;28;20039;-83
2023/03/05 04:32:43;;;;;;;18.50;9.68;;;;;;;3.90;100.00;99696.63;4980350;28;20054;-82
2023/03/05 04:35:09;;;;;;;19.67;10.50;;;;;;;3.95;100.00;99702.25;4961579;28;20065;-80
2023/03/05 04:37:35;;;;;;;22.10;9.43;;;;;;;3.92;99.66;99684.31;4979706;28;20043;-82
2023/03/05 04:40:00;;;;;;;15.68;9.27;;;;;;;3.96;100.00;99686.50;4978069;28;20035;-80
2023/03/05 04:42:26;;;;;;;17.98;9.23;;;;;;;3.81;100.00;99680.91;4978326;28;20459;-82
2023/03/05 04:44:51;;;;;;;15.20;9.30;;;;;;;4.04;99.71;99667.66;4978965;28;20170;-82
2023/03/05 04:47:18;;;;;;;14.50;8.00;;;;;;;4.09;98.99;99681.03;4977042;28;20065;-81
2023/03/05 04:49:44;;;;;;;15.60;8.95;;;;;;;4.09;99.59;99665.47;4974547;28;20039;-81
2023/03/05 04:52:14;;;;;;;15.20;8.50;;;;;;;3.92;98.83;99671.31;4978088;28;20042;-84
2023/03/05 04:54:39;;;;;;;16.85;8.38;;;;;;;4.31;98.33;99658.34;4977846;28;20070;-81
2023/03/05 04:57:05;;;;;;;15.27;8.93;;;;;;;4.35;97.84;99659.72;4977391;28;20042;-82
2023/03/05 04:59:31;;;;;;;14.93;7.80;;;;;;;4.09;98.12;99657.66;4977649;28;20046;-81
2023/03/05 05:01:57;;;;;;;15.65;8.57;;;;;;;3.99;97.95;99646.47;4960454;28;20039;-82
2023/03/05 05:04:22;;;;;;;16.40;8.45;;;;;;;3.91;98.22;99646.31;4960370;28;20043;-81
2023/03/05 05:06:48;;;;;;;13.32;8.27;;;;;;;4.33;97.32;99633.06;4978193;28;20104;-81
2023/03/05 05:09:13;;;;;;;14.65;8.10;;;;;;;4.36;97.00;99640.56;4958517;28;20050;-81
2023/03/05 05:11:39;;;;;;;16.95;7.97;;;;;;;4.12;97.81;99635.78;4977275;28;20051;-81
2023/03/05 05:14:05;;;;;;;17.45;9.20;;;;;;;4.28;98.21;99628.25;4976363;28;20046;-81
2023/03/05 05:16:30;;;;;;;13.70;7.28;;;;;;;4.08;97.99;99629.25;4975990;28;20043;-81
2023/03/05 05:18:56;;;;;;;14.68;7.93;;;;;;;4.32;96.79;99613.19;4975520;28;20039;-84
2023/03/05 05:21:21;;;;;;;15.30;7.50;;;;;;;4.38;96.29;99627.41;4975392;28;20174;-81
2023/03/05 05:23:47;;;;;;;12.93;7.68;;;;;;;4.33;97.05;99614.03;4976041;28;20038;-82
2023/03/05 05:26:13;;;;;;;15.18;7.10;;;;;;;4.41;96.02;99620.16;4976835;28;20057;-84
2023/03/05 05:28:41;;;;;;;11.25;7.20;;;;;;;3.98;95.87;99616.25;4976182;28;20125;-82
2023/03/05 05:31:09;;;;;;;12.43;6.85;;;;;;;3.93;96.94;99600.25;4959902;28;20050;-83
2023/03/05 05:33:35;;;;;;;10.10;6.20;;;;;;;4.26;96.50;99603.38;4976091;28;20147;-82
2023/03/05 05:36:06;;;;;;;19.13;6.57;;;;;;;4.30;96.08;99589.13;4976508;28;20035;-83
2023/03/05 05:38:33;;;;;;;12.85;6.53;;;;;;;4.54;95.74;99590.47;4976368;28;20039;-82
2023/03/05 05:41:07;;;;;;;12.80;7.25;;;;;;;4.76;95.12;99589.25;4958991;28;20054;-81
2023/03/05 05:43:32;;;;;;;11.90;6.47;;;;;;;4.56;95.27;99588.53;4964700;28;20090;-83
2023/03/05 05:46:03;;;;;;;10.40;6.55;;;;;;;4.64;95.07;99596.44;4960245;28;20042;-81
2023/03/05 05:48:30;;;;;;;9.07;5.45;;;;;;;4.37;95.10;99589.38;4959015;28;20038;-82
2023/03/05 05:50:56;;;;;;;12.50;5.55;;;;;;;4.34;95.56;99590.50;4976729;28;20049;-83
2023/03/05 05:53:22;;;;;;;12.63;6.20;;;;;;;4.35;95.88;99586.13;4976349;28;20035;-82
2023/03/05 05:55:47;;;;;;;11.45;5.85;;;;;;;4.29;95.93;99587.47;4976383;28;20078;-80
2023/03/05 05:58:13;;;;;;;9.68;5.63;;;;;;;4.32;95.15;99574.22;4957623;28;20046;-79
2023/03/05 06:00:39;;;;;;;11.80;5.72;;;;;;;4.53;94.42;99581.03;4974897;28;20046;-79
2023/03/05 06:03:04;;;;;;;12.93;6.05;;;;;;;4.21;94.55;99579.59;4975644;28;20064;-78
2023/03/05 06:05:30;;;;;;;11.48;7.03;;;;;;;4.35;94.79;99568.75;4974782;28;20039;-79
2023/03/05 06:07:55;;;;;;;13.43;5.43;;;;;;;4.27;94.43;99579.00;4974924;28;20047;-78
2023/03/05 06:10:21;;;;;;;10.55;5.32;;;;;;;4.21;95.23;99580.38;4957966;28;20050;-78
2023/03/05 06:12:47;;;;;;;12.82;6.00;;;;;;;4.09;95.75;99561.53;4975598;28;20034;-80
2023/03/05 06:15:15;;;;;;;8.93;5.05;;;;;;;4.00;95.75;99562.38;4958696;28;20555;-80
2023/03/05 06:17:41;;;;;;;8.32;6.00;;;;;;;3.80;96.53;99571.97;4974914;28;20122;-80
2023/03/05 06:20:07;;;;;;;9.90;5.63;;;;;;;4.03;96.37;99569.91;4975289;28;20046;-81
2023/03/05 06:22:37;;;;;;;8.90;5.07;;;;;;;4.11;96.42;99564.81;4957642;28;20042;-78
2023/03/05 06:25:04;;;;;;;9.77;6.38;;;;;;;3.93;96.88;99553.50;4956599;28;20043;-78
2023/03/05 06:27:29;;;;;;;10.45;5.47;;;;;;;4.00;95.89;99564.97;4975094;28;20066;-79
2023/03/05 06:29:55;;;;;;;9.43;4.93;;;;;;;4.09;96.44;99568.53;4956963;28;20503;-80
2023/03/05 06:32:21;;;;;;;12.55;5.65;;;;;;;3.89;96.53;99568.56;4974486;28;20381;-80
2023/03/05 06:34:47;;;;;;;9.23;5.53;;;;;;;4.02;97.02;99560.47;4957563;28;20050;-80
2023/03/05 06:37:13;;;;;;;8.73;5.47;;;;;;;4.01;96.97;99564.03;4975760;28;20467;-80
2023/03/05 06:39:38;;;;;;;8.60;5.65;;;;;;;3.80;97.33;99549.41;4974779;28;20118;-80
2023/03/05 06:42:04;;;;;;;12.90;5.72;;;;;;;3.79;97.92;99550.38;4974245;28;20042;-79
2023/03/05 06:44:30;;;;;;;10.15;5.53;;;;;;;3.74;97.79;99552.56;4973216;28;20039;-80
2023/03/05 06:46:55;;;;;;;9.88;5.90;;;;;;;3.85;97.03;99552.41;4973715;28;20483;-80
2023/03/05 06:49:21;;;;;;;14.52;5.80;;;;;;;3.70;96.91;99544.22;4974857;28;20047;-80
2023/03/05 06:51:46;;;;;;;11.52;6.38;;;;;;;4.02;97.28;99555.28;4956932;28;20074;-80
2023/03/05 06:54:14;;;;;;;9.38;5.65;;;;;;;3.92;97.29;99559.66;4974572;28;20043;-81
2023/03/05 06:56:42;;;;;;;10.05;4.93;;;;;;;3.74;97.64;99547.38;4974766;28;20664;-81
2023/03/05 06:59:08;;;;;;;12.93;6.40;;;;;;;3.85;97.63;99552.41;4973598;28;20054;-80
2023/03/05 07:01:33;;;;;;;10.20;5.53;;;;;;;3.50;98.00;99545.19;4974341;28;20039;-79
2023/03/05 07:04:01;;;;;;;10.07;6.30;;;;;;;3.82;97.73;99555.28;4974381;28;20038;-80
2023/03/05 07:06:28;;;;;;;11.55;6.25;;;;;;;3.77;97.71;99549.69;4973150;28;20086;-80
2023/03/05 07:08:57;;;;;;;10.80;6.45;;;;;;;4.06;99.22;99530.66;4974512;28;20035;-80
2023/03/05 07:11:24;;;;;;;9.15;5.95;;;;;;;3.75;97.62;99530.84;4957195;28;20054;-81
2023/03/05 07:13:50;;;;;;;11.55;6.35;;;;;;;3.77;97.34;99543.66;4975219;28;20074;-79
2023/03/05 07:16:18;;;;;;;12.25;6.22;;;;;;;3.81;97.17;99532.88;4973836;28;20050;-80
2023/03/05 07:18:45;;;;;;;12.30;6.45;;;;;;;4.05;96.15;99543.78;4957009;28;20113;-79
2023/03/05 07:21:16;;;;;;;9.32;6.32;;;;;;;3.93;95.27;99530.13;4974166;28;20556;-80
2023/03/05 07:23:41;;;;;;;9.27;5.85;;;;;;;3.95;94.24;99528.22;4973588;28;20066;-80
2023/03/05 07:26:07;;;;;;;12.35;5.65;;;;;;;3.97;93.00;99510.72;4971466;28;20042;-80
2023/03/05 07:28:33;;;;;;;7.20;4.63;;;;;;;4.03;90.42;99509.31;4975149;28;20045;-80
2023/03/05 07:31:04;;;;;;;8.77;5.10;;;;;;;4.12;90.10;99501.50;4974646;28;20066;-80
2023/03/05 07:33:31;;;;;;;6.85;5.15;;;;;;;4.45;90.27;99487.31;4975285;28;20046;-79
2023/03/05 07:35:57;;;;;;;7.70;5.25;;;;;;;4.58;89.30;99493.00;4981110;28;20567;-82
2023/03/05 07:38:22;;;;;;;12.00;5.72;;;;;;;4.54;88.76;99491.66;4957253;28;20038;-81
2023/03/05 07:40:48;;;;;;;9.02;5.40;;;;;;;4.79;87.52;99494.53;4973405;28;20121;-80
2023/03/05 07:43:14;;;;;;;8.77;4.78;;;;;;;4.67;86.80;99491.31;4954660;28;20437;-79
2023/03/05 07:45:41;;;;;;;10.38;4.32;;;;;;;4.54;86.91;99489.88;4974289;28;20046;-80
2023/03/05 07:48:14;;;;;;;10.70;5.72;;;;;;;4.60;87.52;99485.03;4957117;28;20130;-82
2023/03/05 07:50:40;;;;;;;8.52;5.22;;;;;;;4.59;87.95;99476.44;4957403;28;20049;-80
2023/03/05 07:53:06;;;;;;;9.40;5.53;;;;;;;4.61;87.56;99474.50;4974757;28;20030;-81
2023/03/05 07:55:31;;;;;;;9.02;5.07;;;;;;;4.86;87.41;99485.19;4960860;28;20055;-81
2023/03/05 07:57:57;;;;;;;10.40;5.40;;;;;;;4.84;87.32;99476.72;4974727;28;20050;-80
2023/03/05 08:00:22;;;;;;;8.82;4.97;;;;;;;4.95;87.34;99473.91;4958167;28;20030;-79
2023/03/05 08:02:49;;;;;;;8.20;5.10;;;;;;;5.01;87.45;99482.88;4957543;28;20416;-80
2023/03/05 08:05:15;;;;;;;9.77;5.70;;;;;;;5.23;86.87;99473.03;4973229;28;20064;-79
2023/03/05 08:07:40;;;;;;;6.88;5.00;;;;;;;4.77;87.90;99467.88;4974145;28;21843;-81
2023/03/05 08:10:07;;;;;;;9.43;5.45;;;;;;;5.08;87.11;99475.31;4974166;28;20039;-80
2023/03/05 08:12:33;;;;;;;10.07;5.05;;;;;;;5.42;86.80;99474.66;4974250;28;20039;-79
2023/03/05 08:14:58;;;;;;;7.10;5.38;;;;;;;4.92;87.99;99469.00;4974262;28;20134;-82
2023/03/05 08:17:24;;;;;;;7.75;5.30;;;;;;;5.11;87.68;99473.25;4973898;28;20090;-80
2023/03/05 08:19:49;;;;;;;12.45;6.10;;;;;;;5.09;87.52;99475.19;4957340;28;20053;-81
2023/03/05 08:22:16;;;;;;;9.43;5.75;;;;;;;5.18;88.82;99481.28;4973909;28;20103;-80
2023/03/05 08:24:42;;;;;;;8.13;5.57;;;;;;;4.79;88.96;99468.53;4971458;28;20047;-80
2023/03/05 08:27:07;;;;;;;9.10;5.53;;;;;;;4.85;89.93;99466.16;4973712;28;20098;-81
2023/03/05 08:29:33;;;;;;;10.15;5.38;;;;;;;4.87;89.74;99473.81;4976476;28;20038;-80
2023/03/05 08:31:58;;;;;;;5.90;4.57;;;;;;;4.99;89.35;99470.03;4976136;28;20034;-80
2023/03/05 08:34:24;;;;;;;9.07;5.97;;;;;;;4.96;90.36;99452.13;4976307;28;20050;-81
2023/03/05 08:36:49;;;;;;;6.75;4.70;;;;;;;4.92;90.27;99456.00;4974319;28;20066;-80
2023/03/05 08:39:15;;;;;;;7.72;4.57;;;;;;;5.00;90.41;99456.06;4960356;28;20027;-80
2023/03/05 08:41:41;;;;;;;7.95;4.10;;;;;;;5.05;90.40;99436.59;4973769;28;20043;-80
2023/03/05 08:44:06;;;;;;;6.85;4.40;;;;;;;4.97;89.18;99442.53;4974742;28;20501;-80
2023/03/05 08:46:32;;;;;;;9.30;4.05;;;;;;;5.18;88.65;99447.44;4974490;28;20124;-81
2023/03/05 08:48:57;;;;;;;6.80;4.28;;;;;;;4.82;90.35;99437.03;4957206;28;20098;-80
2023/03/05 08:51:25;;;;;;;8.88;4.28;;;;;;;5.05;92.15;99433.97;4980158;28;20551;-80
2023/03/05 08:53:51;;;;;;;8.15;4.25;;;;;;;5.18;91.38;99434.44;4976902;28;20121;-80
2023/03/05 08:56:17;;;;;;;9.30;4.70;;;;;;;4.91;91.88;99427.53;4984338;28;20409;-82
2023/03/05 08:58:44;;;;;;;7.03;4.20;;;;;;;5.10;91.57;99429.13;4970409;28;20042;-83
2023/03/05 09:01:11;;;;;;;5.72;4.28;;;;;;;5.34;90.75;99420.72;4987532;28;20046;-82
2023/03/05 09:03:37;;;;;;;7.15;4.63;;;;;;;5.56;90.24;99403.81;4980780;28;20042;-79
2023/03/05 09:06:05;;;;;;;6.53;4.43;;;;;;;5.69;90.73;99407.78;4978376;28;20417;-79
2023/03/05 09:08:30;;;;;;;5.35;4.13;;;;;;;5.34;90.52;99399.91;4978731;28;20049;-80
2023/03/05 09:11:06;;;;;;;7.07;4.35;;;;;;;5.00;92.43;99411.84;4978790;28;20043;-82
2023/03/05 09:13:33;;;;;;;8.65;4.38;;;;;;;4.69;93.50;99416.56;4978299;28;20049;-81
2023/03/05 09:16:02;;;;;;;10.90;4.40;;;;;;;4.97;93.37;99412.13;4945592;28;20047;-81
2023/03/05 09:18:28;;;;;;;10.38;5.10;;;;;;;4.64;93.05;99406.59;4961579;28;20122;-82
2023/03/05 09:20:53;;;;;;;9.05;5.38;;;;;;;4.77;92.23;99408.03;4960495;28;20043;-82
2023/03/05 09:23:20;;;;;;;11.60;5.25;;;;;;;4.86;92.77;99401.94;4960453;28;20039;-83
2023/03/05 09:25:45;;;;;;;8.68;5.70;;;;;;;4.96;92.39;99404.47;4978499;28;20065;-83
2023/03/05 09:28:11;;;;;;;12.35;6.80;;;;;;;4.78;92.26;99409.69;4961511;28;20501;-82
2023/03/05 09:30:37;;;;;;;9.60;6.75;;;;;;;4.94;92.48;99398.59;4977962;28;20038;-82
2023/03/05 09:33:03;;;;;;;13.35;7.25;;;;;;;4.85;91.87;99395.94;4978939;28;20133;-82
2023/03/05 09:35:29;;;;;;;12.77;7.47;;;;;;;4.88;93.03;99397.41;4976432;28;20125;-83
2023/03/05 09:37:54;;;;;;;11.15;6.45;;;;;;;4.84;92.87;99403.88;4960495;28;20125;-82
2023/03/05 09:40:21;;;;;;;11.27;7.45;;;;;;;4.81;93.36;99383.38;4977521;28;20116;-83
2023/03/05 09:43:02;;;;;;;10.18;6.25;;;;;;;4.93;93.21;99392.59;4979576;28;20108;-82
2023/03/05 09:45:38;;;;;;;14.20;7.05;;;;;;;5.05;93.96;99392.34;4977431;28;20031;-83
2023/03/05 09:48:07;;;;;;;12.57;7.47;;;;;;;4.99;93.26;99389.38;4978101;28;20069;-83
2023/03/05 09:50:37;;;;;;;13.52;8.43;;;;;;;5.00;93.68;99388.41;4978473;28;20161;-83
2023/03/05 09:53:34;;;;;;;12.65;7.95;;;;;;;5.35;93.45;99378.09;4964700;28;20043;-83
2023/03/05 09:56:09;;;;;;;15.35;9.25;;;;;;;5.50;93.04;99373.19;4958404;28;20138;-83
2023/03/05 09:58:38;;;;;;;17.90;9.95;;;;;;;4.97;93.91;99367.09;4961068;28;20054;-81
2023/03/05 10:01:18;;;;;;;21.83;12.27;;;;;;;5.28;93.67;99375.28;4959769;28;20042;-81
2023/03/05 10:03:58;;;;;;;20.90;11.43;;;;;;;5.45;92.82;99377.22;4978655;28;20054;-82
2023/03/05 10:06:33;;;;;;;24.73;11.40;;;;;;;5.09;94.49;99375.47;4979757;28;20039;-82
2023/03/05 10:09:30;;;;;;;20.67;11.60;;;;;;;5.49;94.08;99370.72;4977956;28;20125;-81
2023/03/05 10:12:02;;;;;;;17.63;11.23;;;;;;;5.19;94.15;99350.19;4936293;29;20075;-80
2023/03/05 10:14:40;;;;;;;24.40;13.18;;;;;;;4.93;95.37;99361.38;4922107;29;20059;-79
2023/03/05 10:17:14;;;;;;;25.05;13.73;;;;;;;4.85;95.80;99359.53;4936218;29;20078;-83
2023/03/05 10:19:51;;;;;;;24.92;13.60;;;;;;;5.09;95.98;99357.25;4920525;29;20048;-81
2023/03/05 10:22:25;;;;;;;25.75;13.65;;;;;;;4.52;96.76;99346.22;4937351;29;20055;-84
2023/03/05 10:25:00;;;;;;;25.52;13.57;;;;;;;4.75;97.49;99347.56;4939218;29;20105;-84
2023/03/05 10:27:39;;;;;;;25.05;13.50;;;;;;;5.35;97.83;99348.66;4939495;29;20526;-84
2023/03/05 10:30:05;;;;;;;26.52;12.95;;;;;;;4.81;97.45;99332.16;4937054;29;20047;-84
2023/03/05 10:33:01;;;;;;;23.95;12.32;;;;;;;4.82;99.88;99340.78;4938905;29;20043;-84
2023/03/05 10:36:04;;;;;;;24.67;13.60;;;;;;;4.78;100.00;99336.84;4920830;29;20104;-83
2023/03/05 10:38:41;;;;;;;21.45;12.43;;;;;;;4.64;100.00;99336.41;4938891;29;20047;-85
2023/03/05 10:41:23;;;;;;;23.02;12.48;;;;;;;5.05;100.00;99337.72;4937425;29;20040;-83
2023/03/05 10:44:17;;;;;;;21.50;12.23;;;;;;;4.68;100.00;99337.75;4971012;28;20046;-83
2023/03/05 10:46:44;;;;;;;22.45;12.10;;;;;;;4.69;100.00;99344.56;4936214;28;20125;-85
2023/03/05 10:49:20;;;;;;;23.52;12.30;;;;;;;5.11;100.00;99324.91;4975545;28;20054;-84
2023/03/05 10:51:58;;;;;;;27.15;12.95;;;;;;;5.28;100.00;99312.81;4974350;28;20047;-85
2023/03/05 10:54:29;;;;;;;24.75;11.30;;;;;;;5.33;100.00;99307.16;4958157;28;20540;-83
2023/03/05 10:57:17;;;;;;;23.98;11.75;;;;;;;5.65;99.99;99297.06;4973919;28;20097;-84
2023/03/05 10:59:49;;;;;;;17.42;10.82;;;;;;;5.77;98.76;99295.84;4958647;28;20042;-83
2023/03/05 11:02:16;;;;;;;20.00;11.63;;;;;;;5.52;98.38;99292.28;4958082;28;20039;-85
2023/03/05 11:04:42;;;;;;;21.63;12.98;;;;;;;5.72;97.93;99292.88;4976316;28;20058;-85
2023/03/05 11:07:30;;;;;;;19.77;12.80;;;;;;;5.76;99.17;99278.56;4976753;28;21031;-83
2023/03/05 11:09:59;;;;;;;20.50;11.43;;;;;;;6.00;98.32;99282.22;4975769;28;20082;-83
2023/03/05 11:12:35;;;;;;;21.13;11.30;;;;;;;5.72;98.06;99282.47;4975777;28;20046;-83
2023/03/05 11:15:04;;;;;;;19.38;12.85;;;;;;;5.70;98.85;99277.41;4976767;28;20054;-83
2023/03/05 11:17:33;;;;;;;24.17;12.40;;;;;;;5.58;98.23;99271.66;4958383;28;20456;-83
2023/03/05 11:20:26;;;;;;;18.40;10.93;;;;;;;5.36;97.93;99261.81;4976268;28;20038;-85
2023/03/05 11:23:23;;;;;;;21.00;11.27;;;;;;;5.16;98.71;99262.00;4958119;28;20034;-84
2023/03/05 11:26:12;;;;;;;18.73;11.20;;;;;;;4.99;99.14;99267.13;4957461;28;20035;-84
2023/03/05 11:28:53;;;;;;;19.52;11.35;;;;;;;4.64;100.00;99257.59;4973303;28;20038;-83
2023/03/05 11:31:22;;;;;;;17.95;11.15;;;;;;;4.76;100.00;99250.38;4975661;28;20029;-82
2023/03/05 11:33:57;;;;;;;17.10;10.02;;;;;;;4.82;99.71;99245.38;4974987;28;20126;-81
2023/03/05 11:36:24;;;;;;;18.27;10.55;;;;;;;4.55;100.00;99241.91;4975357;28;20043;-84